Time;durP1;ratioP1;P1;durP2;ratioP2;P2;SDS_P1;SDS_P2;PMS_P1;PMS_P2;Temp;Humidity;BMP_temperature;BMP_pressure;BME280_temperature;BME280_humidity;BME280_pressure;Samples;Min_cycle;Max_cycle;Signal;HPM_P1;HPM_P2
2023/10/29 05:30:25;;;;;;;0.10;0.10;;;11.80;88.50;;;;;;6137361;23;20017;31
2023/10/29 05:32:50;;;;;;;0.15;0.10;;;11.90;88.40;;;;;;4955002;28;20047;-85
2023/10/29 05:35:16;;;;;;;0.10;0.10;;;11.90;88.50;;;;;;4943498;29;20122;-86
2023/10/29 05:37:42;;;;;;;0.10;0.10;;;11.80;88.80;;;;;;4940282;29;20114;-86
2023/10/29 05:40:09;;;;;;;0.10;0.10;;;11.80;88.80;;;;;;4955549;29;20463;-84
2023/10/29 05:42:35;;;;;;;0.10;0.10;;;11.80;88.90;;;;;;4943606;29;20031;-85
2023/10/29 05:45:01;;;;;;;0.20;0.20;;;11.80;88.90;;;;;;4943072;29;20034;-84
2023/10/29 05:47:27;;;;;;;0.10;0.10;;;11.80;88.80;;;;;;4959534;29;20023;-84
2023/10/29 05:49:54;;;;;;;0.10;0.10;;;11.80;89.00;;;;;;4960494;29;20023;-85
2023/10/29 05:52:20;;;;;;;0.10;0.10;;;11.80;89.30;;;;;;4959920;29;20031;-85
2023/10/29 05:54:45;;;;;;;0.10;0.10;;;11.80;89.40;;;;;;4960292;29;20153;-85
2023/10/29 05:57:11;;;;;;;0.10;0.10;;;11.80;89.10;;;;;;4960657;29;20031;-85
2023/10/29 05:59:37;;;;;;;0.10;0.10;;;11.80;89.50;;;;;;4958331;28;20049;-85
2023/10/29 06:02:02;;;;;;;0.10;0.10;;;11.80;89.30;;;;;;4941628;29;20054;-84
2023/10/29 06:04:28;;;;;;;0.10;0.10;;;11.80;89.10;;;;;;4959434;29;20059;-85
2023/10/29 06:06:54;;;;;;;0.10;0.10;;;11.80;89.10;;;;;;4960819;29;20031;-84
2023/10/29 06:09:19;;;;;;;0.10;0.10;;;11.80;89.30;;;;;;4960714;29;20078;-84
2023/10/29 06:11:45;;;;;;;0.10;0.10;;;11.80;89.40;;;;;;4959836;29;20388;-84
2023/10/29 06:14:10;;;;;;;0.10;0.10;;;11.80;89.50;;;;;;4959254;29;20122;-85
2023/10/29 06:16:37;;;;;;;0.10;0.10;;;11.70;89.40;;;;;;4942790;29;20171;-84
2023/10/29 06:19:03;;;;;;;0.10;0.10;;;11.70;89.70;;;;;;4943599;29;20039;-85
2023/10/29 06:21:29;;;;;;;0.10;0.10;;;11.80;89.90;;;;;;4959978;29;20494;-85
2023/10/29 06:23:55;;;;;;;0.10;0.10;;;11.80;89.80;;;;;;4960081;29;20043;-86
2023/10/29 06:26:20;;;;;;;0.10;0.10;;;11.80;89.80;;;;;;4942731;29;20038;-85
2023/10/29 06:28:46;;;;;;;0.10;0.10;;;11.80;89.80;;;;;;4959597;29;20026;-86
2023/10/29 06:31:12;;;;;;;0.10;0.10;;;11.80;89.70;;;;;;4960206;29;20122;-85
2023/10/29 06:33:39;;;;;;;0.10;0.10;;;11.80;89.70;;;;;;4942504;29;20049;-86
2023/10/29 06:36:05;;;;;;;0.10;0.10;;;11.80;89.60;;;;;;4959429;29;20039;-85
2023/10/29 06:38:31;;;;;;;0.10;0.10;;;11.80;89.80;;;;;;4942938;29;20027;-86
2023/10/29 06:40:56;;;;;;;0.10;0.10;;;11.80;89.60;;;;;;4959349;29;20038;-85
2023/10/29 06:43:22;;;;;;;0.10;0.10;;;11.80;89.70;;;;;;4959633;29;20038;-85
2023/10/29 06:45:48;;;;;;;0.10;0.10;;;11.80;89.80;;;;;;4942571;29;20028;-85
2023/10/29 06:48:13;;;;;;;0.10;0.10;;;11.80;89.40;;;;;;4942034;29;20019;-84
2023/10/29 06:50:42;;;;;;;0.10;0.10;;;11.80;89.50;;;;;;4959175;29;20027;-84
2023/10/29 06:53:07;;;;;;;0.10;0.10;;;11.80;89.20;;;;;;4942200;29;20094;-84
2023/10/29 06:55:35;;;;;;;0.10;0.10;;;11.80;89.30;;;;;;4959563;29;20046;-84
2023/10/29 06:58:01;;;;;;;0.10;0.10;;;11.80;89.20;;;;;;4942287;29;20026;-84
2023/10/29 07:00:29;;;;;;;0.10;0.10;;;11.80;89.10;;;;;;4941792;29;20027;-80
2023/10/29 07:02:56;;;;;;;0.10;0.10;;;11.90;89.20;;;;;;4959071;29;20085;-86
2023/10/29 07:05:22;;;;;;;0.10;0.10;;;11.90;89.00;;;;;;4941737;29;20023;-81
2023/10/29 07:07:47;;;;;;;0.10;0.10;;;11.90;88.90;;;;;;4955474;29;20104;-79
2023/10/29 07:10:13;;;;;;;0.20;0.10;;;11.90;89.10;;;;;;4940775;29;20597;-80
2023/10/29 07:12:39;;;;;;;0.10;0.10;;;12.00;89.50;;;;;;4958696;29;20035;-79
2023/10/29 07:15:05;;;;;;;0.10;0.10;;;12.00;89.40;;;;;;4941347;29;20031;-80
2023/10/29 07:17:31;;;;;;;0.10;0.10;;;11.90;90.00;;;;;;4958825;28;20030;-78
2023/10/29 07:19:57;;;;;;;0.10;0.10;;;11.90;90.20;;;;;;4958761;29;20475;-81
2023/10/29 07:22:22;;;;;;;0.00;0.00;;;11.90;90.00;;;;;;4958404;29;20035;-85
2023/10/29 07:24:48;;;;;;;0.00;0.00;;;11.80;89.20;;;;;;4922727;29;20059;-79
2023/10/29 07:27:14;;;;;;;0.10;0.10;;;11.80;88.30;;;;;;4957751;29;20058;-82
2023/10/29 07:29:40;;;;;;;0.10;0.10;;;11.80;88.40;;;;;;4958741;29;20372;-81
2023/10/29 07:32:05;;;;;;;0.10;0.10;;;11.70;88.20;;;;;;4940798;29;20099;-83
2023/10/29 07:34:31;;;;;;;0.05;0.05;;;11.70;88.70;;;;;;4958591;29;20118;-80
2023/10/29 07:36:57;;;;;;;0.10;0.10;;;11.70;88.50;;;;;;4958353;29;20027;-80
2023/10/29 07:39:22;;;;;;;0.10;0.10;;;11.70;88.40;;;;;;4958607;29;20455;-77
2023/10/29 07:41:48;;;;;;;0.08;0.08;;;11.70;88.90;;;;;;4957694;28;20019;-82
2023/10/29 07:44:13;;;;;;;0.10;0.10;;;11.70;89.00;;;;;;4950679;29;20035;-81
2023/10/29 07:46:39;;;;;;;0.10;0.10;;;11.70;89.30;;;;;;4951895;29;20418;-82
2023/10/29 07:49:05;;;;;;;0.10;0.10;;;11.70;89.00;;;;;;4958589;29;20371;-81
2023/10/29 07:51:30;;;;;;;0.10;0.10;;;11.70;88.80;;;;;;4940243;29;20015;-81
2023/10/29 07:53:56;;;;;;;0.10;0.10;;;11.70;88.60;;;;;;4958296;29;20050;-80
2023/10/29 07:56:22;;;;;;;0.10;0.10;;;11.60;88.80;;;;;;4958194;28;20042;-81
2023/10/29 07:58:47;;;;;;;0.10;0.10;;;11.70;88.70;;;;;;4940910;29;20479;-81
2023/10/29 08:01:14;;;;;;;0.10;0.10;;;11.70;89.00;;;;;;4957830;29;20026;-82
2023/10/29 08:03:41;;;;;;;0.10;0.10;;;11.70;88.50;;;;;;4957821;29;20035;-80
2023/10/29 08:06:07;;;;;;;0.10;0.10;;;11.70;88.70;;;;;;4940139;29;20228;-81
2023/10/29 08:08:33;;;;;;;0.10;0.10;;;11.50;88.20;;;;;;4956955;28;20106;-80
2023/10/29 08:10:58;;;;;;;0.10;0.10;;;11.60;88.40;;;;;;4957943;29;20398;-80
2023/10/29 08:13:24;;;;;;;0.10;0.10;;;11.50;88.20;;;;;;4948740;29;20300;-80
2023/10/29 08:15:50;;;;;;;0.10;0.10;;;11.60;88.10;;;;;;4952192;29;20047;-81
2023/10/29 08:18:15;;;;;;;0.10;0.10;;;11.70;88.40;;;;;;4941239;29;20034;-80
2023/10/29 08:20:41;;;;;;;0.10;0.10;;;11.70;88.00;;;;;;4940664;28;20132;-79
2023/10/29 08:23:11;;;;;;;0.10;0.10;;;11.70;88.00;;;;;;4948218;28;20031;-79
2023/10/29 08:25:38;;;;;;;0.10;0.10;;;11.70;88.10;;;;;;4961661;29;20094;-80
2023/10/29 08:28:04;;;;;;;0.10;0.10;;;11.80;87.80;;;;;;4962034;29;20039;-79
2023/10/29 08:30:30;;;;;;;0.10;0.10;;;11.80;88.10;;;;;;4960924;29;20039;-79
2023/10/29 08:32:56;;;;;;;0.10;0.10;;;11.90;87.80;;;;;;4954190;29;20410;-79
2023/10/29 08:35:22;;;;;;;0.10;0.10;;;11.90;88.00;;;;;;4944850;29;20122;-82
2023/10/29 08:37:48;;;;;;;0.10;0.10;;;11.90;87.80;;;;;;4955749;29;20027;-79
2023/10/29 08:40:13;;;;;;;0.10;0.10;;;12.00;88.20;;;;;;4952389;29;20400;-79
2023/10/29 08:42:39;;;;;;;0.10;0.10;;;12.10;87.50;;;;;;4956690;29;20039;-80
2023/10/29 08:45:05;;;;;;;0.00;0.00;;;12.20;87.60;;;;;;4955978;29;20822;-79
2023/10/29 08:47:31;;;;;;;0.10;0.10;;;12.20;87.70;;;;;;4942907;29;20035;-79
2023/10/29 08:49:58;;;;;;;0.10;0.10;;;12.20;87.50;;;;;;4960214;29;20024;-80
2023/10/29 08:52:24;;;;;;;0.10;0.10;;;12.20;87.70;;;;;;4953536;28;20043;-79
2023/10/29 08:54:50;;;;;;;0.00;0.00;;;12.10;87.90;;;;;;4943191;29;20038;-78
2023/10/29 08:57:16;;;;;;;0.10;0.10;;;12.10;88.30;;;;;;4944485;29;21100;-78
2023/10/29 08:59:42;;;;;;;0.10;0.10;;;12.00;88.40;;;;;;4961475;29;20020;-79
2023/10/29 09:02:08;;;;;;;0.10;0.10;;;12.00;88.80;;;;;;4959624;29;20039;-78
2023/10/29 09:04:40;;;;;;;0.10;0.10;;;11.90;88.20;;;;;;4953716;28;20058;-79
2023/10/29 09:07:06;;;;;;;0.10;0.10;;;11.90;87.90;;;;;;4940250;29;20036;-78
2023/10/29 09:09:32;;;;;;;0.10;0.10;;;11.90;88.00;;;;;;4942927;29;20019;-88
2023/10/29 09:11:58;;;;;;;0.10;0.10;;;11.90;88.30;;;;;;4942611;29;20431;-79
2023/10/29 09:14:24;;;;;;;0.10;0.10;;;11.90;88.10;;;;;;4957957;29;20027;-80
2023/10/29 09:16:52;;;;;;;0.10;0.10;;;12.00;87.90;;;;;;4959815;29;20031;-78
2023/10/29 09:19:18;;;;;;;0.10;0.10;;;12.10;88.10;;;;;;4957795;28;20399;-79
2023/10/29 09:21:46;;;;;;;0.10;0.10;;;12.20;88.00;;;;;;4938913;29;20039;-79
2023/10/29 09:24:12;;;;;;;0.10;0.10;;;12.30;87.80;;;;;;4960226;29;20031;-79
2023/10/29 09:26:37;;;;;;;0.10;0.10;;;12.30;87.80;;;;;;4942847;29;20027;-80
2023/10/29 09:29:03;;;;;;;0.10;0.10;;;12.30;87.70;;;;;;4935657;29;20029;-79
2023/10/29 09:31:31;;;;;;;0.10;0.10;;;12.20;87.50;;;;;;4941633;29;20090;-79
2023/10/29 09:34:07;;;;;;;0.10;0.10;;;12.20;87.90;;;;;;4942051;29;20027;-79
2023/10/29 09:36:35;;;;;;;0.00;0.00;;;12.20;87.90;;;;;;4942013;29;20063;-79
2023/10/29 09:39:00;;;;;;;0.20;0.20;;;12.10;87.80;;;;;;4959225;29;20373;-80
2023/10/29 09:41:26;;;;;;;0.10;0.10;;;12.20;88.00;;;;;;4958893;29;20086;-79
2023/10/29 09:43:53;;;;;;;0.10;0.10;;;12.40;88.10;;;;;;4941786;29;20031;-80
2023/10/29 09:46:20;;;;;;;0.10;0.10;;;12.60;88.10;;;;;;4958541;29;20035;-81
2023/10/29 09:48:47;;;;;;;0.10;0.10;;;12.70;87.90;;;;;;4956371;29;20028;-77
2023/10/29 09:51:15;;;;;;;0.10;0.10;;;12.80;87.80;;;;;;4959235;28;20031;-79
2023/10/29 09:53:40;;;;;;;0.10;0.10;;;12.90;87.80;;;;;;4959328;29;20066;-79
2023/10/29 09:56:08;;;;;;;0.10;0.10;;;13.00;87.30;;;;;;4959141;28;20027;-80
2023/10/29 09:58:35;;;;;;;0.10;0.10;;;13.00;86.80;;;;;;4956716;29;20027;-79
2023/10/29 10:01:02;;;;;;;0.10;0.10;;;13.10;87.00;;;;;;4958083;29;20502;-79
2023/10/29 10:03:28;;;;;;;0.10;0.10;;;13.20;86.40;;;;;;4940965;29;20031;-85
2023/10/29 10:05:57;;;;;;;0.10;0.10;;;13.20;86.30;;;;;;4958663;29;20038;-80
2023/10/29 10:08:27;;;;;;;0.10;0.10;;;13.30;85.80;;;;;;4942004;29;20023;-80
2023/10/29 10:10:57;;;;;;;0.10;0.10;;;13.40;85.70;;;;;;4957533;28;20023;-80
2023/10/29 10:13:41;;;;;;;0.10;0.10;;;13.50;85.30;;;;;;4941247;29;20035;-80
2023/10/29 10:16:15;;;;;;;0.10;0.10;;;13.50;85.30;;;;;;4956181;29;20031;-79
2023/10/29 10:18:51;;;;;;;0.10;0.10;;;13.50;85.20;;;;;;4958702;29;20033;-83
2023/10/29 10:21:20;;;;;;;0.10;0.10;;;13.60;84.60;;;;;;4954837;28;20028;-80
2023/10/29 10:23:56;;;;;;;0.10;0.10;;;13.60;84.10;;;;;;4952613;28;20039;-81
2023/10/29 10:26:34;;;;;;;0.10;0.10;;;13.70;84.10;;;;;;4957475;29;20031;-79
2023/10/29 10:29:00;;;;;;;0.10;0.10;;;13.70;84.20;;;;;;4955942;29;20019;-78
2023/10/29 10:31:27;;;;;;;0.10;0.10;;;13.80;84.00;;;;;;4940635;29;20544;-78
2023/10/29 10:34:09;;;;;;;0.10;0.10;;;13.80;83.50;;;;;;4958538;28;20023;-78
2023/10/29 10:36:35;;;;;;;0.10;0.10;;;13.90;83.30;;;;;;4950467;28;20023;-78
2023/10/29 10:39:01;;;;;;;0.00;0.00;;;14.00;83.50;;;;;;4942338;29;20110;-77
2023/10/29 10:41:42;;;;;;;0.10;0.10;;;14.00;82.60;;;;;;4956310;29;20024;-78
2023/10/29 10:44:12;;;;;;;0.10;0.10;;;14.00;82.50;;;;;;4959149;28;20039;-78
2023/10/29 10:46:41;;;;;;;0.10;0.10;;;14.20;82.70;;;;;;4940942;29;20049;-78
2023/10/29 10:49:07;;;;;;;0.10;0.10;;;14.30;81.90;;;;;;4953964;28;20031;-78
2023/10/29 10:51:39;;;;;;;0.10;0.10;;;14.40;82.00;;;;;;4942725;29;20038;-78
2023/10/29 10:54:05;;;;;;;0.10;0.10;;;14.40;81.60;;;;;;4957991;29;20035;-78
2023/10/29 10:56:35;;;;;;;0.10;0.10;;;14.30;81.80;;;;;;4939255;29;20123;-78
2023/10/29 10:59:06;;;;;;;0.10;0.10;;;14.20;81.60;;;;;;4957889;29;20035;-78
2023/10/29 11:01:35;;;;;;;0.10;0.10;;;14.30;81.70;;;;;;4957928;28;20114;-78
2023/10/29 11:04:02;;;;;;;0.10;0.10;;;14.30;80.80;;;;;;4935667;29;20495;-78
2023/10/29 11:06:28;;;;;;;0.10;0.10;;;14.40;80.20;;;;;;4958334;29;20495;-78
2023/10/29 11:08:55;;;;;;;0.10;0.10;;;14.50;79.80;;;;;;4957888;29;20112;-78
2023/10/29 11:11:24;;;;;;;0.10;0.10;;;14.60;79.80;;;;;;4956124;28;20027;-78
2023/10/29 11:13:50;;;;;;;0.10;0.10;;;14.70;80.20;;;;;;4957959;28;20054;-78
2023/10/29 11:16:23;;;;;;;0.10;0.10;;;14.70;78.80;;;;;;4952748;29;20550;-79
2023/10/29 11:18:49;;;;;;;0.10;0.10;;;14.70;78.00;;;;;;4950748;28;20435;-78
2023/10/29 11:21:32;;;;;;;0.10;0.10;;;14.70;78.20;;;;;;4955902;29;20031;-79
2023/10/29 11:24:22;;;;;;;0.00;0.00;;;14.80;77.70;;;;;;4957828;29;20019;-78
2023/10/29 11:26:47;;;;;;;0.10;0.10;;;14.80;76.80;;;;;;4934783;29;20027;-78
2023/10/29 11:29:48;;;;;;;0.10;0.10;;;14.90;77.40;;;;;;4954613;29;20035;-78
2023/10/29 11:32:26;;;;;;;0.10;0.10;;;15.00;76.50;;;;;;4893330;29;20126;-78
2023/10/29 11:35:17;;;;;;;0.10;0.10;;;15.10;76.30;;;;;;4928309;29;20533;-78
2023/10/29 11:37:44;;;;;;;0.10;0.10;;;15.30;76.20;;;;;;4936390;29;20023;-78
2023/10/29 11:40:24;;;;;;;0.10;0.10;;;15.40;75.60;;;;;;4957197;29;20040;-77
2023/10/29 11:42:53;;;;;;;0.10;0.10;;;15.50;75.10;;;;;;4952607;29;20035;-76
2023/10/29 11:45:28;;;;;;;0.10;0.10;;;15.60;73.80;;;;;;4956869;29;20081;-78
2023/10/29 11:48:09;;;;;;;0.10;0.10;;;15.70;73.90;;;;;;4952777;29;20399;-79
2023/10/29 11:51:02;;;;;;;0.10;0.10;;;15.80;73.70;;;;;;4950710;29;20023;-77
2023/10/29 11:53:28;;;;;;;0.10;0.10;;;15.70;73.60;;;;;;4940683;29;20057;-77
2023/10/29 11:55:59;;;;;;;0.10;0.10;;;15.70;73.30;;;;;;4954274;28;20067;-78
2023/10/29 11:58:26;;;;;;;0.10;0.10;;;15.80;75.30;;;;;;4936423;29;20031;-79
2023/10/29 12:00:53;;;;;;;0.10;0.10;;;15.90;74.80;;;;;;4955985;29;20056;-77
2023/10/29 12:03:22;;;;;;;0.10;0.10;;;15.90;73.00;;;;;;4953309;29;20031;-78
2023/10/29 12:05:55;;;;;;;0.10;0.10;;;15.80;74.40;;;;;;4957418;29;20027;-79
2023/10/29 12:08:21;;;;;;;0.10;0.10;;;15.80;75.70;;;;;;4954776;29;20506;-82
2023/10/29 12:10:52;;;;;;;0.10;0.10;;;15.70;74.30;;;;;;4958361;29;20487;-75
2023/10/29 12:13:18;;;;;;;0.00;0.00;;;15.50;74.20;;;;;;4954724;29;20027;-82
2023/10/29 12:15:58;;;;;;;0.10;0.10;;;15.30;74.50;;;;;;4953448;29;20055;-80
2023/10/29 12:18:25;;;;;;;0.05;0.05;;;15.10;75.50;;;;;;4954719;29;20395;-83
2023/10/29 12:21:02;;;;;;;0.10;0.10;;;15.10;76.30;;;;;;4957522;29;20042;-77
2023/10/29 12:23:28;;;;;;;0.10;0.10;;;14.90;76.40;;;;;;4954456;29;20023;-77
2023/10/29 12:25:55;;;;;;;0.10;0.10;;;14.70;75.20;;;;;;4953542;29;20117;-81
2023/10/29 12:28:20;;;;;;;0.10;0.10;;;14.60;77.30;;;;;;4954036;28;20495;-81
2023/10/29 12:30:47;;;;;;;0.10;0.10;;;14.50;78.50;;;;;;4940289;29;20121;-82
2023/10/29 12:33:19;;;;;;;0.00;0.00;;;14.30;79.20;;;;;;4937635;29;20027;-80
2023/10/29 12:35:47;;;;;;;0.00;0.00;;;14.30;79.80;;;;;;4933981;29;20059;-81
2023/10/29 12:38:13;;;;;;;0.10;0.10;;;14.30;80.10;;;;;;4950567;29;20267;-81
2023/10/29 12:41:14;;;;;;;0.10;0.10;;;14.70;79.30;;;;;;4953936;29;20027;-80
2023/10/29 12:43:46;;;;;;;0.10;0.10;;;14.90;77.60;;;;;;4954746;29;20115;-79
2023/10/29 12:46:14;;;;;;;0.10;0.10;;;15.00;77.90;;;;;;4958068;29;20020;-82
2023/10/29 12:48:59;;;;;;;0.10;0.10;;;15.10;78.60;;;;;;4954603;29;20043;-79
2023/10/29 12:51:27;;;;;;;0.08;0.08;;;15.20;79.10;;;;;;4954915;29;20031;-78
2023/10/29 12:54:14;;;;;;;0.10;0.10;;;15.30;79.50;;;;;;4957449;29;20095;-79
2023/10/29 12:57:01;;;;;;;0.00;0.00;;;15.30;78.30;;;;;;4954423;29;20027;-82
2023/10/29 12:59:31;;;;;;;0.10;0.10;;;15.40;76.30;;;;;;4940804;29;20028;-89
2023/10/29 13:02:07;;;;;;;0.10;0.10;;;15.40;77.40;;;;;;4954086;29;20027;-80
2023/10/29 13:04:35;;;;;;;0.10;0.10;;;15.30;77.30;;;;;;4954345;29;20030;-84
2023/10/29 13:07:11;;;;;;;0.10;0.10;;;15.40;77.70;;;;;;4956257;28;20427;-85
2023/10/29 13:09:38;;;;;;;0.10;0.10;;;15.40;76.60;;;;;;4955326;29;20039;-78
2023/10/29 13:12:07;;;;;;;0.10;0.10;;;15.60;75.30;;;;;;4951348;28;20123;-84
2023/10/29 13:14:34;;;;;;;0.10;0.10;;;15.60;74.60;;;;;;4942756;29;20032;-81
2023/10/29 13:17:00;;;;;;;0.10;0.10;;;15.70;74.70;;;;;;4938465;29;20031;-80
2023/10/29 13:19:26;;;;;;;0.10;0.10;;;15.60;73.20;;;;;;4937553;29;20711;-80
2023/10/29 13:21:52;;;;;;;0.10;0.10;;;15.60;73.50;;;;;;4942482;29;20112;-80
2023/10/29 13:24:21;;;;;;;0.10;0.10;;;15.60;72.80;;;;;;4954299;28;20041;-80
2023/10/29 13:26:48;;;;;;;0.10;0.10;;;15.60;73.30;;;;;;4953722;29;20100;-81
2023/10/29 13:29:15;;;;;;;0.10;0.10;;;15.70;73.60;;;;;;4955374;29;20041;-81
2023/10/29 13:31:41;;;;;;;0.10;0.10;;;15.60;73.20;;;;;;4955503;29;20043;-80
2023/10/29 13:34:08;;;;;;;0.10;0.10;;;15.70;73.70;;;;;;4959255;29;20027;-80
2023/10/29 13:36:34;;;;;;;0.10;0.10;;;15.70;72.70;;;;;;4941491;29;20086;-81
2023/10/29 13:39:01;;;;;;;0.10;0.10;;;15.70;73.60;;;;;;4958849;28;20644;-81
2023/10/29 13:41:27;;;;;;;0.10;0.10;;;15.70;73.20;;;;;;4958586;29;20047;-81
2023/10/29 13:43:52;;;;;;;0.10;0.10;;;15.70;73.80;;;;;;4942545;29;20042;-81
2023/10/29 13:46:18;;;;;;;0.10;0.10;;;15.70;74.00;;;;;;4959290;29;20550;-81
2023/10/29 13:48:46;;;;;;;0.10;0.10;;;15.80;73.50;;;;;;4959939;29;20023;-81
2023/10/29 13:51:12;;;;;;;0.10;0.10;;;15.80;73.30;;;;;;4955414;29;20036;-82
2023/10/29 13:53:38;;;;;;;0.10;0.10;;;15.80;73.20;;;;;;4947804;28;20031;-84
2023/10/29 13:56:06;;;;;;;0.10;0.10;;;15.80;73.10;;;;;;4958703;29;20019;-82
2023/10/29 13:58:32;;;;;;;0.10;0.10;;;15.80;73.30;;;;;;4937007;29;20147;-82
2023/10/29 14:00:57;;;;;;;0.10;0.10;;;15.80;73.30;;;;;;4959147;29;20075;-81
2023/10/29 14:03:23;;;;;;;0.10;0.10;;;15.80;73.80;;;;;;4933449;29;20031;-82
2023/10/29 14:05:49;;;;;;;0.10;0.10;;;15.90;74.00;;;;;;4937590;29;20023;-82
2023/10/29 14:08:15;;;;;;;0.10;0.10;;;15.90;72.90;;;;;;4959174;29;20031;-81
2023/10/29 14:10:40;;;;;;;0.10;0.10;;;16.00;70.30;;;;;;4955919;29;20021;-81
2023/10/29 14:13:06;;;;;;;0.00;0.00;;;16.00;70.50;;;;;;4957076;29;20090;-82
2023/10/29 14:15:32;;;;;;;0.10;0.10;;;16.00;69.80;;;;;;4936681;29;20050;-81
2023/10/29 14:17:58;;;;;;;0.10;0.10;;;16.00;69.60;;;;;;4937740;29;20067;-83
2023/10/29 14:20:27;;;;;;;0.10;0.10;;;16.00;68.50;;;;;;4934802;28;20031;-80
2023/10/29 14:22:53;;;;;;;0.10;0.10;;;16.00;68.90;;;;;;4956566;29;20094;-81
2023/10/29 14:25:19;;;;;;;0.10;0.10;;;15.90;68.60;;;;;;4935236;29;20023;-81
2023/10/29 14:27:45;;;;;;;0.13;0.13;;;15.90;67.20;;;;;;4955203;29;20035;-80
2023/10/29 14:30:11;;;;;;;0.10;0.10;;;15.90;67.40;;;;;;4930408;29;20566;-80
2023/10/29 14:32:39;;;;;;;0.00;0.00;;;15.90;67.70;;;;;;4955075;28;20147;-81
2023/10/29 14:35:05;;;;;;;0.10;0.10;;;15.80;67.80;;;;;;4949743;29;20114;-81
2023/10/29 14:37:32;;;;;;;0.10;0.10;;;15.80;68.00;;;;;;4934918;29;20026;-82
2023/10/29 14:39:58;;;;;;;0.10;0.10;;;15.80;68.80;;;;;;4936576;29;20027;-80
2023/10/29 14:42:25;;;;;;;0.10;0.10;;;15.80;66.90;;;;;;4952911;29;20031;-80
2023/10/29 14:44:51;;;;;;;0.10;0.10;;;15.90;67.90;;;;;;4949472;29;20054;-80
2023/10/29 14:47:17;;;;;;;0.10;0.10;;;16.00;68.10;;;;;;4954585;28;20042;-79
2023/10/29 14:49:44;;;;;;;0.10;0.10;;;15.90;67.60;;;;;;4954892;29;20028;-80
2023/10/29 14:52:10;;;;;;;0.00;0.00;;;15.80;67.80;;;;;;4955209;29;20023;-80
2023/10/29 14:54:36;;;;;;;0.10;0.10;;;15.60;68.00;;;;;;4954296;29;20054;-80
2023/10/29 14:57:02;;;;;;;0.10;0.10;;;15.50;68.00;;;;;;4958092;29;20031;-79
2023/10/29 14:59:28;;;;;;;0.10;0.10;;;15.50;68.60;;;;;;4955383;29;20031;-80
2023/10/29 15:01:58;;;;;;;0.10;0.10;;;15.50;68.00;;;;;;4953426;28;20218;-80
2023/10/29 15:04:23;;;;;;;0.10;0.10;;;15.50;68.70;;;;;;4954478;29;20066;-80
2023/10/29 15:06:49;;;;;;;0.10;0.10;;;15.50;68.10;;;;;;4956350;29;20023;-81
2023/10/29 15:09:15;;;;;;;0.10;0.10;;;15.50;68.20;;;;;;4952543;28;20029;-79
2023/10/29 15:11:41;;;;;;;0.00;0.00;;;15.40;67.90;;;;;;4955045;29;20483;-79
2023/10/29 15:14:06;;;;;;;0.10;0.10;;;15.30;68.10;;;;;;4954664;29;20023;-80
2023/10/29 15:16:32;;;;;;;0.08;0.08;;;15.30;68.30;;;;;;4952003;29;20039;-79
2023/10/29 15:18:58;;;;;;;0.10;0.10;;;15.10;68.80;;;;;;4934368;29;20134;-79
2023/10/29 15:21:23;;;;;;;0.05;0.05;;;15.10;70.10;;;;;;4955618;29;20078;-79
2023/10/29 15:23:49;;;;;;;0.10;0.10;;;15.10;70.10;;;;;;4933481;29;20402;-79
2023/10/29 15:26:18;;;;;;;0.10;0.10;;;15.00;69.80;;;;;;4936755;29;20027;-79
2023/10/29 15:28:44;;;;;;;0.10;0.10;;;14.90;69.30;;;;;;4958346;29;20030;-79
2023/10/29 15:31:10;;;;;;;0.10;0.10;;;14.90;69.80;;;;;;4935914;29;20036;-79
2023/10/29 15:33:36;;;;;;;0.10;0.10;;;14.90;70.00;;;;;;4954343;29;20597;-79
2023/10/29 15:36:06;;;;;;;0.10;0.10;;;14.80;68.70;;;;;;4954873;29;20067;-78
2023/10/29 15:38:32;;;;;;;0.10;0.10;;;14.80;69.40;;;;;;4955819;29;20047;-83
2023/10/29 15:40:58;;;;;;;0.10;0.10;;;14.80;69.70;;;;;;4949010;29;20067;-79
2023/10/29 15:43:23;;;;;;;0.10;0.10;;;14.80;69.90;;;;;;4951983;28;20055;-79
2023/10/29 15:45:49;;;;;;;0.10;0.10;;;14.80;69.70;;;;;;4953249;29;20466;-79
2023/10/29 15:48:15;;;;;;;0.00;0.00;;;14.90;69.90;;;;;;4950286;28;20054;-76
2023/10/29 15:50:51;;;;;;;0.10;0.10;;;14.90;70.10;;;;;;4956814;29;20100;-78
2023/10/29 15:53:17;;;;;;;0.10;0.10;;;14.80;70.20;;;;;;4954655;29;20027;-76
2023/10/29 15:55:42;;;;;;;0.10;0.10;;;14.80;71.10;;;;;;4958068;29;20031;-76
2023/10/29 15:58:08;;;;;;;0.10;0.10;;;14.70;70.30;;;;;;4954835;29;20130;-77
2023/10/29 16:00:37;;;;;;;0.10;0.10;;;14.70;70.40;;;;;;4954783;29;20038;-78
2023/10/29 16:03:06;;;;;;;0.10;0.10;;;14.70;70.30;;;;;;4940598;29;20065;-77
2023/10/29 16:05:33;;;;;;;0.00;0.00;;;14.60;67.90;;;;;;4938717;29;20082;-76
2023/10/29 16:07:59;;;;;;;0.10;0.10;;;14.60;66.40;;;;;;4937307;29;20027;-77
2023/10/29 16:10:24;;;;;;;0.10;0.10;;;14.60;65.10;;;;;;4939274;29;20514;-77
2023/10/29 16:12:50;;;;;;;0.10;0.10;;;14.50;64.00;;;;;;4951567;29;20086;-78
2023/10/29 16:15:15;;;;;;;0.10;0.10;;;14.60;66.10;;;;;;4955245;29;20100;-82
2023/10/29 16:17:41;;;;;;;0.00;0.00;;;14.60;66.40;;;;;;4951829;29;20479;-78
2023/10/29 16:20:08;;;;;;;0.00;0.00;;;14.70;66.50;;;;;;4953208;29;20047;-77
2023/10/29 16:22:34;;;;;;;0.10;0.10;;;14.50;66.80;;;;;;4954924;29;20031;-78
2023/10/29 16:25:00;;;;;;;0.10;0.10;;;14.30;66.80;;;;;;4925171;29;20031;-77
2023/10/29 16:27:26;;;;;;;0.10;0.10;;;14.20;67.10;;;;;;4935039;29;20028;-82
2023/10/29 16:29:55;;;;;;;0.00;0.00;;;14.10;68.00;;;;;;4948466;29;20086;-76
2023/10/29 16:32:24;;;;;;;0.10;0.10;;;14.00;68.90;;;;;;4937879;29;20047;-77
2023/10/29 16:34:50;;;;;;;0.00;0.00;;;13.90;69.30;;;;;;4957357;29;20031;-77
2023/10/29 16:37:15;;;;;;;0.00;0.00;;;13.80;69.90;;;;;;4952053;28;20027;-81
2023/10/29 16:39:41;;;;;;;0.00;0.00;;;13.70;70.20;;;;;;4954317;29;20093;-77
2023/10/29 16:42:07;;;;;;;0.00;0.00;;;13.70;70.50;;;;;;4952994;28;20023;-77
2023/10/29 16:44:33;;;;;;;0.10;0.10;;;13.50;70.50;;;;;;4958128;29;20058;-77
2023/10/29 16:47:00;;;;;;;0.00;0.00;;;13.50;71.30;;;;;;4958863;29;20082;-77
2023/10/29 16:49:26;;;;;;;0.00;0.00;;;13.40;71.00;;;;;;4938630;29;20039;-77
2023/10/29 16:51:53;;;;;;;0.00;0.00;;;13.20;71.50;;;;;;4959191;28;20648;-79
2023/10/29 16:54:19;;;;;;;0.10;0.10;;;13.20;71.70;;;;;;4956691;29;20023;-80
2023/10/29 16:56:45;;;;;;;0.00;0.00;;;13.10;71.90;;;;;;4938926;29;20034;-77
2023/10/29 16:59:10;;;;;;;0.00;0.00;;;13.10;72.60;;;;;;4958946;28;20078;-76
2023/10/29 17:01:38;;;;;;;0.05;0.05;;;13.00;72.70;;;;;;4955018;29;20106;-79
2023/10/29 17:04:05;;;;;;;0.10;0.10;;;13.00;73.00;;;;;;4955723;28;20038;-87
2023/10/29 17:06:32;;;;;;;0.10;0.10;;;13.00;73.50;;;;;;4960792;29;20082;-88
2023/10/29 17:08:59;;;;;;;0.10;0.10;;;12.90;73.40;;;;;;4957336;29;20510;-90
2023/10/29 17:11:26;;;;;;;0.08;0.08;;;12.80;73.20;;;;;;4940932;29;20028;-86
2023/10/29 17:13:51;;;;;;;0.10;0.10;;;12.80;74.10;;;;;;4944448;29;20449;-85
2023/10/29 17:16:17;;;;;;;0.00;0.00;;;12.80;73.20;;;;;;4943032;29;20024;-88
2023/10/29 17:18:43;;;;;;;0.10;0.10;;;12.80;74.80;;;;;;4959033;29;21628;-83
2023/10/29 17:21:16;;;;;;;0.05;0.05;;;12.80;75.10;;;;;;4958321;28;20099;-84
2023/10/29 17:23:43;;;;;;;0.10;0.10;;;12.80;75.30;;;;;;4955959;29;20031;-88
2023/10/29 17:26:17;;;;;;;0.10;0.10;;;12.70;75.10;;;;;;4957678;29;20114;-85
2023/10/29 17:28:46;;;;;;;0.10;0.10;;;12.60;75.50;;;;;;4956794;29;20038;-82
2023/10/29 17:31:17;;;;;;;0.10;0.10;;;12.50;75.70;;;;;;4960616;29;20035;-85
2023/10/29 17:33:43;;;;;;;0.10;0.10;;;12.50;76.40;;;;;;4939061;29;20087;-82
2023/10/29 17:36:10;;;;;;;0.10;0.10;;;12.40;76.10;;;;;;4956486;29;20039;-83
2023/10/29 17:38:36;;;;;;;0.10;0.10;;;12.40;76.70;;;;;;4959918;29;20035;-83
2023/10/29 17:41:02;;;;;;;0.10;0.10;;;12.30;76.60;;;;;;4939784;29;20034;-82
2023/10/29 17:43:28;;;;;;;0.10;0.10;;;12.40;77.40;;;;;;4956315;29;20043;-83
2023/10/29 17:45:56;;;;;;;0.10;0.10;;;12.40;77.30;;;;;;4958190;29;20039;-82
2023/10/29 17:48:22;;;;;;;0.00;0.00;;;12.30;77.30;;;;;;4951770;28;20484;-80
2023/10/29 17:50:57;;;;;;;0.10;0.10;;;12.30;77.70;;;;;;4942386;29;20020;-83
2023/10/29 17:53:27;;;;;;;0.10;0.10;;;12.30;77.70;;;;;;4934505;28;20120;-84
2023/10/29 17:55:53;;;;;;;0.10;0.10;;;12.20;78.00;;;;;;4942831;29;20034;-80
2023/10/29 17:58:19;;;;;;;0.10;0.10;;;12.20;78.40;;;;;;4947328;28;20152;-80
2023/10/29 18:00:46;;;;;;;0.10;0.10;;;12.20;78.80;;;;;;4949659;29;20031;-81
2023/10/29 18:03:11;;;;;;;0.10;0.10;;;12.20;78.90;;;;;;4954061;29;20039;-77
2023/10/29 18:05:39;;;;;;;0.00;0.00;;;12.20;78.60;;;;;;4947647;29;20023;-81
2023/10/29 18:08:08;;;;;;;0.10;0.10;;;12.00;78.90;;;;;;4932448;29;20475;-77
2023/10/29 18:10:34;;;;;;;0.00;0.00;;;12.00;79.40;;;;;;4949121;29;20020;-75
2023/10/29 18:13:00;;;;;;;0.10;0.10;;;12.00;79.50;;;;;;4955795;29;20562;-75
2023/10/29 18:15:26;;;;;;;0.08;0.08;;;12.00;79.70;;;;;;4955835;29;20502;-73
2023/10/29 18:17:51;;;;;;;0.00;0.00;;;12.00;80.10;;;;;;4955376;29;20438;-73
2023/10/29 18:20:17;;;;;;;0.10;0.10;;;12.00;80.20;;;;;;4956453;29;20031;-73